createdAt,value
2019-04-11T00:00:31.341Z,21.27
2019-04-11T00:03:00.840Z,20.67
2019-04-11T00:05:30.711Z,20.63
2019-04-11T00:08:00.205Z,22.83
2019-04-11T00:10:29.904Z,25.83
2019-04-11T00:13:01.117Z,22.07
2019-04-11T00:15:30.715Z,27.27
2019-04-11T00:18:00.685Z,26.93
2019-04-11T00:20:29.746Z,27.47
2019-04-11T00:22:59.700Z,26.17
2019-04-11T00:25:28.760Z,28.83
2019-04-11T00:27:57.651Z,28.33
2019-04-11T00:30:26.548Z,28.95
2019-04-11T00:32:56.044Z,30.73
2019-04-11T00:35:25.915Z,31.23
2019-04-11T00:37:54.852Z,30.27
2019-04-11T00:40:24.802Z,29.90
2019-04-11T00:42:54.730Z,33.33
2019-04-11T00:45:23.782Z,32.13
2019-04-11T00:47:53.227Z,32.83
2019-04-11T00:50:23.197Z,32.33
2019-04-11T00:52:53.831Z,32.30
2019-04-11T00:55:23.760Z,30.40
2019-04-11T00:57:53.074Z,33.37
2019-04-11T01:00:22.865Z,33.93
2019-04-11T01:02:51.859Z,35.87
2019-04-11T01:05:21.394Z,34.67
2019-04-11T01:07:51.274Z,33.90
2019-04-11T01:10:20.437Z,24.92
2019-04-11T01:12:49.904Z,18.73
2019-04-11T01:15:21.631Z,17.77
2019-04-11T01:17:51.680Z,15.47
2019-04-11T01:20:21.578Z,16.67
2019-04-11T01:22:50.824Z,21.03
2019-04-11T01:25:20.148Z,19.10
2019-04-11T01:27:50.019Z,23.47
2019-04-11T01:30:22.848Z,25.13
2019-04-11T01:32:52.717Z,30.40
2019-04-11T01:35:21.775Z,29.87
2019-04-11T01:37:50.771Z,32.93
2019-04-11T01:40:19.661Z,30.05
2019-04-11T01:42:49.249Z,33.53
2019-04-11T01:45:21.163Z,29.93
2019-04-11T01:48:07.504Z,29.03
2019-04-11T01:50:38.059Z,31.03
2019-04-11T01:53:08.850Z,33.63
2019-04-11T01:55:38.769Z,32.57
2019-04-11T01:58:08.694Z,34.97
2019-04-11T02:00:42.117Z,33.53
2019-04-11T02:03:15.562Z,30.27
2019-04-11T02:05:45.341Z,31.27
2019-04-11T02:08:15.321Z,30.10
2019-04-11T02:10:45.288Z,33.10
2019-04-11T02:13:15.208Z,29.45
2019-04-11T02:15:44.384Z,24.77
2019-04-11T02:18:13.271Z,19.48
2019-04-11T02:20:42.165Z,16.30
2019-04-11T02:23:26.775Z,13.70
2019-04-11T02:26:00.846Z,14.17
2019-04-11T02:28:30.922Z,13.67
2019-04-11T02:31:00.225Z,11.83
2019-04-11T02:33:30.527Z,13.03
2019-04-11T02:36:00.886Z,11.67
2019-04-11T02:38:30.513Z,12.63
2019-04-11T02:41:01.181Z,12.67
2019-04-11T02:43:31.813Z,11.37
2019-04-11T02:46:13.053Z,15.10
2019-04-11T02:48:33.042Z,15.73
2019-04-11T02:51:02.985Z,18.00
2019-04-11T02:53:34.362Z,17.40
2019-04-11T02:56:05.983Z,20.43
2019-04-11T02:58:36.689Z,21.67
2019-04-11T03:01:07.482Z,18.57
2019-04-11T03:03:37.377Z,20.53
2019-04-11T03:06:07.233Z,19.47
2019-04-11T03:08:38.790Z,17.93
2019-04-11T03:11:10.624Z,18.52
2019-04-11T03:13:40.084Z,19.20
2019-04-11T03:16:24.988Z,19.43
2019-04-11T03:18:59.285Z,20.90
2019-04-11T03:21:17.969Z,21.52
2019-04-11T03:23:44.029Z,17.33
2019-04-11T03:26:14.081Z,17.67
2019-04-11T03:28:47.479Z,21.33
2019-04-11T03:31:50.599Z,22.73
2019-04-11T03:39:11.802Z,22.87
2019-04-11T03:41:36.027Z,30.77
2019-04-11T03:43:59.321Z,28.27
2019-04-11T03:46:38.094Z,29.60
2019-04-11T03:49:01.223Z,26.03
2019-04-11T03:51:22.758Z,29.00
2019-04-11T03:53:53.428Z,23.97
2019-04-11T03:56:24.227Z,25.23
2019-04-11T03:58:55.333Z,24.03
2019-04-11T04:01:26.309Z,25.50
2019-04-11T04:03:55.786Z,26.80
2019-04-11T04:06:25.590Z,27.07
2019-04-11T04:08:55.495Z,29.03
2019-04-11T04:11:27.446Z,35.20
2019-04-11T04:13:59.897Z,30.40
2019-04-11T04:16:50.495Z,28.80
2019-04-11T04:19:35.538Z,16.10
2019-04-11T04:22:15.964Z,16.77
2019-04-11T04:24:47.710Z,13.53
2019-04-11T04:27:17.471Z,14.23
2019-04-11T04:29:49.643Z,18.90
2019-04-11T04:32:18.534Z,16.13
2019-04-11T04:34:50.591Z,18.33
2019-04-11T04:37:21.429Z,18.03
2019-04-11T04:40:12.256Z,24.70
2019-04-11T04:42:27.235Z,19.87
2019-04-11T04:44:51.679Z,16.97
2019-04-11T04:47:24.874Z,26.97
2019-04-11T04:49:52.228Z,18.43
2019-04-11T04:52:21.463Z,13.93
2019-04-11T04:54:50.414Z,13.50
2019-04-11T04:57:21.855Z,19.30
2019-04-11T04:59:50.757Z,15.13
2019-04-11T05:02:20.577Z,14.63
2019-04-11T05:04:49.779Z,15.10
2019-04-11T05:07:19.390Z,13.23
2019-04-11T05:09:50.175Z,9.13
2019-04-11T05:12:20.522Z,10.48
2019-04-11T05:14:49.982Z,9.88
2019-04-11T05:17:19.356Z,9.80
2019-04-11T05:19:48.759Z,20.40
2019-04-11T05:22:18.934Z,22.87
2019-04-11T05:24:48.064Z,25.63
2019-04-11T05:27:17.546Z,13.70
2019-04-11T05:29:46.356Z,15.13
2019-04-11T05:32:15.460Z,13.72
2019-04-11T05:34:45.617Z,12.83
2019-04-11T05:37:15.309Z,14.50
2019-04-11T05:39:44.968Z,13.23
2019-04-11T05:42:17.763Z,19.12
2019-04-11T05:44:45.152Z,18.50
2019-04-11T05:47:18.144Z,22.02
2019-04-11T05:49:46.665Z,22.60
2019-04-11T05:52:15.780Z,22.37
2019-04-11T05:54:47.997Z,20.43
2019-04-11T05:57:22.073Z,17.87
2019-04-11T05:59:49.943Z,21.47
2019-04-11T06:02:24.824Z,25.02
2019-04-11T06:05:02.729Z,19.50
2019-04-11T06:07:40.030Z,16.87
2019-04-11T06:10:12.624Z,12.67
2019-04-11T06:12:58.999Z,16.60
2019-04-11T06:15:33.273Z,11.40
2019-04-11T06:18:04.862Z,17.47
2019-04-11T06:20:45.218Z,17.93
2019-04-11T06:23:25.456Z,16.43
2019-04-11T06:26:06.690Z,18.10
2019-04-11T06:28:36.160Z,20.83
2019-04-11T06:31:18.726Z,19.93
2019-04-11T06:33:49.172Z,27.20
2019-04-11T06:36:23.261Z,23.02
2019-04-11T06:38:54.692Z,26.47
2019-04-11T06:41:26.270Z,18.70
2019-04-11T06:43:56.812Z,23.07
2019-04-11T06:46:31.317Z,26.90
2019-04-11T06:49:16.612Z,32.87
2019-04-11T06:51:50.478Z,49.87
2019-04-11T06:54:23.613Z,56.30
2019-04-11T06:56:53.842Z,57.33
2019-04-11T06:59:28.095Z,61.00
2019-04-11T07:02:08.013Z,61.07
2019-04-11T07:04:33.925Z,63.33
2019-04-11T07:07:04.509Z,62.13
2019-04-11T07:09:41.426Z,59.80
2019-04-11T07:12:13.388Z,57.80
2019-04-11T07:14:53.042Z,65.40
2019-04-11T07:17:40.444Z,64.12
2019-04-11T07:20:16.547Z,63.08
2019-04-11T07:23:03.745Z,66.90
2019-04-11T07:25:43.693Z,62.53
2019-04-11T07:28:14.476Z,64.30
2019-04-11T07:31:02.392Z,65.00
2019-04-11T07:33:33.316Z,66.53
2019-04-11T07:36:21.020Z,64.87
2019-04-11T07:39:07.824Z,66.23
2019-04-11T07:41:39.247Z,62.37
2019-04-11T07:44:11.005Z,71.07
2019-04-11T07:46:58.248Z,65.80
2019-04-11T07:49:44.987Z,64.33
2019-04-11T07:52:15.771Z,62.23
2019-04-11T07:54:45.634Z,62.73
2019-04-11T07:57:26.344Z,63.40
2019-04-11T08:00:12.720Z,65.60
2019-04-11T08:03:01.975Z,62.43
2019-04-11T08:05:32.608Z,62.57
2019-04-11T08:08:06.847Z,57.80
2019-04-11T08:10:44.232Z,59.77
2019-04-11T08:13:23.861Z,68.13
2019-04-11T08:16:10.607Z,61.70
2019-04-11T08:18:57.787Z,62.03
2019-04-11T08:21:44.291Z,55.67
2019-04-11T08:24:30.132Z,61.10
2019-04-11T08:27:00.921Z,66.10
2019-04-11T08:29:30.555Z,64.47
2019-04-11T08:32:09.926Z,64.53
2019-04-11T08:34:43.719Z,66.83
2019-04-11T08:37:23.315Z,69.95
2019-04-11T08:39:53.395Z,69.63
2019-04-11T08:42:40.797Z,70.70
2019-04-11T08:45:12.665Z,70.85
2019-04-11T08:47:47.703Z,67.20
2019-04-11T08:50:16.396Z,73.33
2019-04-11T08:52:50.043Z,67.57
2019-04-11T08:55:21.044Z,73.30
2019-04-11T08:57:51.924Z,71.13
2019-04-11T09:00:33.064Z,72.30
2019-04-11T09:03:09.670Z,73.07
2019-04-11T09:05:40.863Z,72.80
2019-04-11T09:08:12.575Z,69.58
2019-04-11T09:11:00.121Z,72.17
2019-04-11T09:13:31.318Z,70.87
2019-04-11T09:16:18.329Z,76.63
2019-04-11T09:18:47.870Z,75.80
2019-04-11T09:21:34.575Z,73.87
2019-04-11T09:24:06.124Z,71.67
2019-04-11T09:26:52.941Z,70.43
2019-04-11T09:29:24.087Z,80.87
2019-04-11T09:32:09.804Z,76.03
2019-04-11T09:34:44.078Z,74.27
2019-04-11T09:37:16.824Z,73.42
2019-04-11T09:39:51.033Z,74.60
2019-04-11T09:42:23.001Z,83.30
2019-04-11T09:44:57.222Z,77.60
2019-04-11T09:47:46.131Z,75.47
2019-04-11T09:50:16.658Z,70.60
2019-04-11T09:52:47.423Z,72.60
2019-04-11T09:55:23.760Z,74.63
2019-04-11T09:57:54.644Z,67.70
2019-04-11T10:00:32.497Z,71.13
2019-04-11T10:03:02.975Z,67.10
2019-04-11T10:05:36.422Z,67.20
2019-04-11T10:08:10.666Z,66.17
2019-04-11T10:10:57.545Z,65.13
2019-04-11T10:13:31.108Z,63.98
2019-04-11T10:16:11.548Z,60.77
2019-04-11T10:18:51.567Z,63.07
2019-04-11T10:21:23.024Z,67.55
2019-04-11T10:24:01.032Z,64.17
2019-04-11T10:26:31.979Z,59.13
2019-04-11T10:29:14.913Z,56.27
2019-04-11T10:31:48.528Z,58.33
2019-04-11T10:34:21.778Z,54.27
2019-04-11T10:36:52.203Z,55.70
2019-04-11T10:39:22.771Z,60.90
2019-04-11T10:41:53.817Z,58.73
2019-04-11T10:44:27.018Z,56.47
2019-04-11T10:47:10.041Z,57.57
2019-04-11T10:49:50.656Z,55.50
2019-04-11T10:52:27.025Z,55.60
2019-04-11T10:55:15.671Z,55.50
2019-04-11T10:57:48.764Z,52.93
2019-04-11T11:00:23.003Z,54.95
2019-04-11T11:03:11.898Z,52.20
2019-04-11T11:05:45.353Z,62.30
2019-04-11T11:08:19.475Z,53.63
2019-04-11T11:10:52.130Z,54.03
2019-04-11T11:13:25.655Z,52.80
2019-04-11T11:15:56.037Z,53.20
2019-04-11T11:19:06.002Z,60.45
2019-04-11T11:21:11.314Z,50.85
2019-04-11T11:23:42.833Z,56.17
2019-04-11T11:26:14.509Z,54.20
2019-04-11T11:28:45.094Z,53.77
2019-04-11T11:31:22.383Z,51.20
2019-04-11T11:33:51.786Z,54.30
2019-04-11T11:36:23.426Z,52.80
2019-04-11T11:39:13.057Z,49.70
2019-04-11T11:41:44.586Z,51.07
2019-04-11T11:44:13.871Z,52.70
2019-04-11T11:46:44.673Z,52.63
2019-04-11T11:49:14.273Z,49.73
2019-04-11T11:52:03.996Z,55.13
2019-04-11T11:54:37.795Z,51.03
2019-04-11T11:57:08.682Z,47.83
2019-04-11T11:59:45.181Z,50.07
2019-04-11T12:02:21.113Z,52.70
2019-04-11T12:04:56.203Z,51.67
2019-04-11T12:07:42.994Z,46.45
2019-04-11T12:10:23.965Z,47.93
2019-04-11T12:13:08.136Z,50.60
2019-04-11T12:15:45.503Z,47.97
2019-04-11T12:18:20.371Z,47.38
2019-04-11T12:20:59.218Z,44.07
2019-04-11T12:23:44.775Z,46.23
2019-04-11T12:26:05.377Z,49.73
2019-04-11T12:28:54.291Z,46.67
2019-04-11T12:31:28.701Z,46.37
2019-04-11T12:34:02.293Z,41.37
2019-04-11T12:36:46.580Z,38.50
2019-04-11T12:39:28.679Z,40.17
2019-04-11T12:41:58.408Z,40.87
2019-04-11T12:44:31.805Z,43.43
2019-04-11T12:47:07.594Z,41.23
2019-04-11T12:49:52.471Z,42.50
2019-04-11T12:52:31.656Z,48.42
2019-04-11T12:55:02.096Z,41.17
2019-04-11T12:57:48.894Z,43.33
2019-04-11T13:00:19.749Z,44.13
2019-04-11T13:03:02.555Z,42.00
2019-04-11T13:05:45.475Z,42.10
2019-04-11T13:08:19.075Z,41.67
2019-04-11T13:10:48.276Z,45.77
2019-04-11T13:13:37.237Z,40.90
2019-04-11T13:16:12.485Z,40.23
2019-04-11T13:18:58.873Z,39.30
2019-04-11T13:21:32.001Z,37.00
2019-04-11T13:24:02.416Z,39.77
2019-04-11T13:26:49.510Z,37.77
2019-04-11T13:29:29.051Z,40.33
2019-04-11T13:32:17.499Z,42.43
2019-04-11T13:34:47.933Z,40.37
2019-04-11T13:37:18.352Z,35.93
2019-04-11T13:39:48.782Z,33.67
2019-04-11T13:42:35.601Z,37.80
2019-04-11T13:45:06.224Z,41.80
2019-04-11T13:47:52.857Z,41.50
2019-04-11T13:50:23.259Z,39.20
2019-04-11T13:53:09.829Z,39.93
2019-04-11T13:55:38.755Z,40.30
2019-04-11T13:58:15.441Z,40.73
2019-04-11T14:00:45.960Z,43.67
2019-04-11T14:03:34.612Z,42.85
2019-04-11T14:06:05.043Z,43.17
2019-04-11T14:08:47.450Z,42.70
2019-04-11T14:11:17.879Z,43.17
2019-04-11T14:13:46.778Z,40.70
2019-04-11T14:16:19.960Z,36.68
2019-04-11T14:18:56.326Z,42.53
2019-04-11T14:21:32.691Z,36.73
2019-04-11T14:24:12.200Z,41.53
2019-04-11T14:26:48.499Z,41.47
2019-04-11T14:29:34.284Z,42.23
2019-04-11T14:32:04.714Z,37.63
2019-04-11T14:34:40.853Z,35.23
2019-04-11T14:37:37.811Z,41.28
2019-04-11T14:40:11.410Z,37.60
2019-04-11T14:42:50.861Z,43.13
2019-04-11T14:45:24.467Z,38.47
2019-04-11T14:47:54.893Z,38.93
2019-04-11T14:50:25.113Z,36.90
2019-04-11T14:52:58.409Z,40.73
2019-04-11T14:55:28.528Z,39.53
2019-04-11T14:57:58.954Z,42.37
2019-04-11T15:00:29.586Z,39.97
2019-04-11T15:03:18.243Z,37.27
2019-04-11T15:05:48.679Z,42.53
2019-04-11T15:08:28.210Z,42.50
2019-04-11T15:10:58.637Z,46.77
2019-04-11T15:13:29.066Z,45.53
2019-04-11T15:16:14.503Z,45.03
2019-04-11T15:18:44.973Z,44.80
2019-04-11T15:21:18.367Z,47.73
2019-04-11T15:23:47.337Z,45.27
2019-04-11T15:26:26.906Z,48.53
2019-04-11T15:28:57.329Z,48.47
2019-04-11T15:31:39.932Z,51.47
2019-04-11T15:34:19.598Z,49.17
2019-04-11T15:36:50.114Z,46.70
2019-04-11T15:39:44.366Z,48.90
2019-04-11T15:42:10.172Z,48.73
2019-04-11T15:44:46.471Z,48.67
2019-04-11T15:47:19.008Z,53.78
2019-04-11T15:50:04.951Z,47.97
2019-04-11T15:52:34.701Z,47.07
2019-04-11T15:55:23.419Z,48.20
2019-04-11T15:57:52.618Z,44.47
2019-04-11T16:00:23.153Z,45.33
2019-04-11T16:02:56.548Z,51.37
2019-04-11T16:05:45.516Z,50.77
2019-04-11T16:08:31.089Z,50.20
2019-04-11T16:11:04.229Z,51.33
2019-04-11T16:13:43.619Z,45.20
2019-04-11T16:16:12.810Z,45.95
2019-04-11T16:22:05.384Z,46.57
2019-04-11T16:24:38.987Z,46.73
2019-04-11T16:27:16.168Z,52.90
2019-04-11T16:29:59.092Z,53.17
2019-04-11T16:32:29.521Z,45.60
2019-04-11T16:35:09.142Z,51.87
2019-04-11T16:37:38.665Z,45.87
2019-04-11T16:40:14.816Z,44.10
2019-04-11T16:42:44.620Z,53.70
2019-04-11T16:45:31.862Z,51.05
2019-04-11T16:48:02.622Z,51.33
2019-04-11T16:50:31.694Z,48.30
2019-04-11T16:53:00.700Z,43.70
2019-04-11T16:55:29.588Z,46.20
2019-04-11T16:57:58.470Z,51.17
2019-04-11T17:00:27.468Z,46.28
2019-04-11T17:02:56.458Z,46.07
2019-04-11T17:05:26.797Z,49.03
2019-04-11T17:08:06.219Z,51.20
2019-04-11T17:10:56.571Z,52.30
2019-04-11T17:13:25.800Z,51.97
2019-04-11T17:15:54.399Z,45.97
2019-04-11T17:18:23.289Z,56.00
2019-04-11T17:20:52.284Z,54.27
2019-04-11T17:23:21.173Z,51.47
2019-04-11T17:25:52.910Z,50.40
2019-04-11T17:28:23.087Z,56.75
2019-04-11T17:30:54.784Z,55.20
2019-04-11T17:33:25.527Z,52.00
2019-04-11T17:35:53.821Z,52.37
2019-04-11T17:38:22.715Z,53.33
2019-04-11T17:40:51.706Z,55.87
2019-04-11T17:43:20.599Z,56.53
2019-04-11T17:45:49.489Z,55.00
2019-04-11T17:48:19.760Z,50.43
2019-04-11T17:50:48.604Z,53.40
2019-04-11T17:53:17.491Z,54.47
2019-04-11T17:55:46.390Z,51.30
2019-04-11T17:58:15.273Z,58.35
2019-04-11T18:00:45.702Z,51.83
2019-04-11T18:03:14.595Z,56.23
2019-04-11T18:05:46.615Z,53.63
2019-04-11T18:08:14.320Z,53.35
2019-04-11T18:10:43.214Z,54.40
2019-04-11T18:13:12.411Z,54.87
2019-04-11T18:15:41.403Z,53.07
2019-04-11T18:18:10.602Z,56.28
2019-04-11T18:20:39.596Z,52.70
2019-04-11T18:23:09.102Z,55.80
2019-04-11T18:25:38.094Z,54.77
2019-04-11T18:28:07.557Z,52.67
2019-04-11T18:30:36.491Z,47.17
2019-04-11T18:33:05.503Z,51.80
2019-04-11T18:35:34.583Z,49.90
2019-04-11T18:38:03.472Z,53.03
2019-04-11T18:40:32.465Z,53.07
2019-04-11T18:43:01.473Z,52.53
2019-04-11T18:45:30.350Z,56.27
2019-04-11T18:47:59.360Z,51.73
2019-04-11T18:50:28.922Z,58.53
2019-04-11T18:52:59.516Z,64.57
2019-04-11T18:55:28.577Z,54.88
2019-04-11T18:57:57.474Z,55.53
2019-04-11T19:00:26.802Z,52.17
2019-04-11T19:02:55.999Z,59.77
2019-04-11T19:05:29.060Z,54.83
2019-04-11T19:07:55.640Z,56.20
2019-04-11T19:10:24.488Z,53.08
2019-04-11T19:12:55.345Z,51.87
2019-04-11T19:15:25.444Z,52.77
2019-04-11T19:18:05.784Z,56.13
2019-04-11T19:20:24.964Z,56.80
2019-04-11T19:22:53.855Z,54.27
2019-04-11T19:25:22.851Z,55.97
2019-04-11T19:27:54.197Z,61.20
2019-04-11T19:30:23.951Z,55.80
2019-04-11T19:32:53.169Z,63.73
2019-04-11T19:35:22.107Z,60.07
2019-04-11T19:37:50.998Z,56.43
2019-04-11T19:40:19.883Z,56.03
2019-04-11T19:42:49.764Z,60.30
2019-04-11T19:45:20.298Z,54.93
2019-04-11T19:47:51.839Z,59.10
2019-04-11T19:50:19.969Z,52.17
2019-04-11T19:52:48.848Z,58.60
2019-04-11T19:55:19.373Z,61.03
2019-04-11T19:57:48.272Z,57.87
2019-04-11T20:00:21.585Z,55.75
2019-04-11T20:02:51.784Z,57.05
2019-04-11T20:05:21.604Z,64.67
2019-04-11T20:07:50.490Z,61.00
2019-04-11T20:10:19.378Z,60.70
2019-04-11T20:12:48.270Z,57.50
2019-04-11T20:15:17.162Z,55.87
2019-04-11T20:17:51.135Z,58.13
2019-04-11T20:20:16.785Z,55.88
2019-04-11T20:22:57.951Z,61.07
2019-04-11T20:25:16.843Z,64.10
2019-04-11T20:27:48.128Z,56.43
2019-04-11T20:30:16.736Z,57.60
2019-04-11T20:32:45.646Z,59.17
2019-04-11T20:35:14.593Z,56.53
2019-04-11T20:37:44.687Z,61.03
2019-04-11T20:40:17.442Z,58.50
2019-04-11T20:42:44.795Z,57.07
2019-04-11T20:45:13.891Z,63.37
2019-04-11T20:47:42.786Z,56.23
2019-04-11T20:50:11.978Z,62.33
2019-04-11T20:52:40.872Z,65.70
2019-04-11T20:55:11.094Z,59.85
2019-04-11T20:57:41.023Z,61.40
2019-04-11T21:00:12.447Z,57.03
2019-04-11T21:02:41.351Z,60.67
2019-04-11T21:05:11.471Z,61.63
2019-04-11T21:07:40.361Z,61.13
2019-04-11T21:10:10.347Z,56.93
2019-04-11T21:12:39.282Z,55.20
2019-04-11T21:15:09.800Z,60.08
2019-04-11T21:17:38.691Z,62.87
2019-04-11T21:20:09.161Z,59.53
2019-04-11T21:22:38.012Z,56.77
2019-04-11T21:25:07.550Z,54.40
2019-04-11T21:27:36.407Z,59.83
2019-04-11T21:30:06.820Z,66.77
2019-04-11T21:32:35.626Z,59.90
2019-04-11T21:35:06.537Z,64.37
2019-04-11T21:37:36.737Z,58.50
2019-04-11T21:40:07.543Z,57.10
2019-04-11T21:42:36.807Z,61.07
2019-04-11T21:45:07.449Z,55.60
2019-04-11T21:47:37.196Z,60.90
2019-04-11T21:50:09.428Z,58.47
2019-04-11T21:52:43.444Z,56.93
2019-04-11T21:55:15.192Z,59.20
2019-04-11T21:57:41.635Z,56.00
2019-04-11T22:00:23.183Z,57.70
2019-04-11T22:02:54.503Z,56.27
2019-04-11T22:05:23.056Z,60.38
2019-04-11T22:07:51.945Z,63.53
2019-04-11T22:10:20.842Z,59.30
2019-04-11T22:12:49.830Z,58.93
2019-04-11T22:15:18.720Z,51.23
2019-04-11T22:17:47.614Z,58.93
2019-04-11T22:20:17.375Z,55.55
2019-04-11T22:22:46.314Z,58.97
2019-04-11T22:25:15.206Z,51.33
2019-04-11T22:27:44.201Z,55.73
2019-04-11T22:30:16.264Z,53.68
2019-04-11T22:32:46.693Z,51.93
2019-04-11T22:35:15.939Z,50.35
2019-04-11T22:37:44.784Z,56.60
2019-04-11T22:40:14.732Z,55.60
2019-04-11T22:42:43.589Z,53.97
2019-04-11T22:45:13.812Z,54.00
2019-04-11T22:47:42.805Z,54.17
2019-04-11T22:50:13.250Z,52.40
2019-04-11T22:52:42.805Z,54.27
2019-04-11T22:55:11.957Z,48.73
2019-04-11T22:57:43.585Z,50.17
2019-04-11T23:00:15.218Z,51.48
2019-04-11T23:02:47.430Z,53.13
2019-04-11T23:05:17.336Z,49.50
2019-04-11T23:07:48.346Z,51.30
2019-04-11T23:10:17.755Z,52.93
2019-04-11T23:12:46.670Z,48.93
2019-04-11T23:15:15.768Z,56.50
2019-04-11T23:17:44.965Z,52.10
2019-04-11T23:20:14.956Z,50.13
2019-04-11T23:22:44.074Z,49.43
2019-04-11T23:25:13.580Z,51.48
2019-04-11T23:27:42.476Z,56.37
2019-04-11T23:30:15.896Z,50.38
2019-04-11T23:32:44.864Z,47.57
2019-04-11T23:35:13.758Z,51.47
2019-04-11T23:37:54.525Z,55.33
2019-04-11T23:40:23.418Z,52.98
2019-04-11T23:42:52.619Z,51.10
2019-04-11T23:45:23.044Z,54.50
2019-04-11T23:47:54.098Z,51.27
2019-04-11T23:50:24.902Z,52.27
2019-04-11T23:52:57.045Z,53.33
2019-04-11T23:55:23.730Z,55.43
2019-04-11T23:57:52.627Z,58.00
